Time;durP1;ratioP1;P1;durP2;ratioP2;P2;SDS_P1;SDS_P2;PMS_P1;PMS_P2;Temp;Humidity;BMP_temperature;BMP_pressure;BME280_temperature;BME280_humidity;BME280_pressure;Samples;Min_cycle;Max_cycle;Signal;HPM_P1;HPM_P2
2023/09/08 00:01:41;;;;;;;;;;;;;;;19.07;nan;100524.63;5006685;28;19961;-82
2023/09/08 00:04:07;;;;;;;;;;;;;;;19.16;nan;100501.88;5000071;28;19940;-83
2023/09/08 00:06:32;;;;;;;;;;;;;;;19.26;nan;100528.31;5002865;28;19926;-82
2023/09/08 00:08:57;;;;;;;;;;;;;;;19.35;nan;100515.47;5011607;28;19917;-83
2023/09/08 00:11:22;;;;;;;;;;;;;;;19.41;nan;100520.00;5015283;28;19927;-82
2023/09/08 00:13:50;;;;;;;;;;;;;;;19.44;nan;100522.25;5011381;28;19972;-83
2023/09/08 00:16:15;;;;;;;;;;;;;;;19.46;nan;100502.25;5010949;28;19917;-83
2023/09/08 00:18:40;;;;;;;;;;;;;;;19.55;nan;100510.06;5007348;28;19983;-83
2023/09/08 00:21:05;;;;;;;;;;;;;;;19.55;nan;100516.25;5002868;28;19914;-81
2023/09/08 00:23:30;;;;;;;;;;;;;;;19.57;nan;100519.56;4986055;28;19929;-83
2023/09/08 00:25:55;;;;;;;;;;;;;;;19.58;nan;100520.38;4995228;28;20195;-82
2023/09/08 00:28:21;;;;;;;;;;;;;;;19.57;nan;100513.34;5005204;28;19928;-83
2023/09/08 00:30:46;;;;;;;;;;;;;;;19.54;nan;100514.59;5014215;28;20034;-82
2023/09/08 00:33:13;;;;;;;;;;;;;;;19.55;nan;100504.72;5002069;28;20322;-82
2023/09/08 00:35:38;;;;;;;;;;;;;;;19.58;nan;100515.81;4980067;28;20386;-83
2023/09/08 00:38:04;;;;;;;;;;;;;;;19.60;nan;100512.94;5010750;28;19944;-81
2023/09/08 00:40:29;;;;;;;;;;;;;;;19.56;nan;100512.53;5011971;28;19970;-82
2023/09/08 00:42:54;;;;;;;;;;;;;;;19.55;nan;100505.53;4986529;28;20008;-82
2023/09/08 00:45:19;;;;;;;;;;;;;;;19.50;nan;100518.75;5010065;28;19914;-82
2023/09/08 00:47:45;;;;;;;;;;;;;;;19.43;nan;100507.22;5008935;28;20133;-83
2023/09/08 00:50:11;;;;;;;;;;;;;;;19.37;nan;100502.69;4982570;28;19984;-81
2023/09/08 00:52:36;;;;;;;;;;;;;;;19.29;nan;100503.75;5003500;28;19917;-82
2023/09/08 00:55:02;;;;;;;;;;;;;;;19.24;nan;100503.56;4992305;28;19969;-82
2023/09/08 00:57:27;;;;;;;;;;;;;;;19.17;nan;100498.19;5005078;28;19917;-82
2023/09/08 00:59:52;;;;;;;;;;;;;;;;;;4996241;28;19944;-83
2023/09/08 01:02:17;;;;;;;;;;;;;;;19.07;nan;100500.50;4999082;28;19917;-83
2023/09/08 01:04:43;;;;;;;;;;;;;;;;;;5010091;28;19913;-82
2023/09/08 01:07:09;;;;;;;;;;;;;;;18.97;nan;100500.88;5009039;28;19940;-82
2023/09/08 01:09:35;;;;;;;;;;;;;;;18.91;nan;100504.41;5004320;28;19944;-82
2023/09/08 01:12:02;;;;;;;;;;;;;;;18.86;nan;100497.00;4992853;28;20049;-81
2023/09/08 01:14:29;;;;;;;;;;;;;;;18.87;nan;100513.88;4997222;28;19918;-82
2023/09/08 01:16:54;;;;;;;;;;;;;;;18.88;nan;100505.66;4977075;28;19914;-83
2023/09/08 01:19:19;;;;;;;;;;;;;;;18.88;nan;100511.00;5012571;28;19940;-81
2023/09/08 01:22:03;;;;;;;;;;;;;;;18.87;nan;100513.88;5014073;28;19913;-81
2023/09/08 01:24:37;;;;;;;;;;;;;;;18.84;nan;100514.31;5007326;28;19925;-81
2023/09/08 01:27:02;;;;;;;;;;;;;;;18.84;nan;100508.94;4993343;28;19913;-82
2023/09/08 01:29:29;;;;;;;;;;;;;;;18.86;nan;100502.34;4986711;28;19940;-81
2023/09/08 01:31:55;;;;;;;;;;;;;;;18.91;nan;100507.09;5006239;28;20008;-83
2023/09/08 01:34:20;;;;;;;;;;;;;;;18.91;nan;100492.88;5002380;28;19941;-82
2023/09/08 01:36:45;;;;;;;;;;;;;;;18.93;nan;100506.91;5004011;28;19919;-81
2023/09/08 01:39:11;;;;;;;;;;;;;;;18.92;nan;100499.88;4985045;28;19953;-81
2023/09/08 01:41:36;;;;;;;;;;;;;;;18.92;nan;100505.22;4991809;28;19914;-82
2023/09/08 01:44:07;;;;;;;;;;;;;;;18.89;nan;100501.94;4992957;28;19999;-81
2023/09/08 01:46:32;;;;;;;;;;;;;;;18.85;nan;100500.72;5005108;28;19917;-81
2023/09/08 01:48:58;;;;;;;;;;;;;;;18.83;nan;100502.78;4990858;28;20001;-82
2023/09/08 01:51:23;;;;;;;;;;;;;;;18.83;nan;100496.56;4996094;28;20401;-82
2023/09/08 01:53:48;;;;;;;;;;;;;;;18.79;nan;100493.50;5001791;28;19948;-82
2023/09/08 01:56:13;;;;;;;;;;;;;;;;;;4988616;28;19917;-83
2023/09/08 01:58:38;;;;;;;;;;;;;;;18.78;nan;100499.91;4986009;28;19968;-82
2023/09/08 02:01:05;;;;;;;;;;;;;;;18.74;nan;100493.25;5006308;28;19976;-83
2023/09/08 02:03:31;;;;;;;;;;;;;;;18.75;nan;100494.06;5008597;28;20045;-82
2023/09/08 02:05:56;;;;;;;;;;;;;;;18.76;nan;100501.06;5003901;28;20399;-81
2023/09/08 02:08:21;;;;;;;;;;;;;;;18.72;nan;100499.84;4994019;28;19957;-82
2023/09/08 02:10:46;;;;;;;;;;;;;;;18.68;nan;100494.88;5017148;28;19971;-82
2023/09/08 02:13:11;;;;;;;;;;;;;;;18.71;nan;100499.03;5014198;28;20306;-82
2023/09/08 02:15:36;;;;;;;;;;;;;;;18.68;nan;100491.38;4997154;28;19917;-82
2023/09/08 02:18:02;;;;;;;;;;;;;;;18.68;nan;100499.44;5013234;28;19924;-82
2023/09/08 02:20:27;;;;;;;;;;;;;;;18.64;nan;100492.84;5007581;28;20007;-82
2023/09/08 02:22:52;;;;;;;;;;;;;;;;;;5001809;28;19918;-83
2023/09/08 02:25:17;;;;;;;;;;;;;;;18.58;nan;100483.78;4994533;28;19918;-81
2023/09/08 02:27:42;;;;;;;;;;;;;;;18.55;nan;100488.72;5013860;28;20397;-80
2023/09/08 02:30:08;;;;;;;;;;;;;;;18.53;nan;100496.94;5013181;28;20337;-82
2023/09/08 02:32:33;;;;;;;;;;;;;;;18.51;nan;100492.84;5009163;28;19989;-81
2023/09/08 02:34:58;;;;;;;;;;;;;;;18.48;nan;100487.91;5007585;28;20004;-81
2023/09/08 02:37:23;;;;;;;;;;;;;;;18.45;nan;100497.97;5005647;28;20037;-81
2023/09/08 02:39:49;;;;;;;;;;;;;;;18.43;nan;100486.66;5013541;28;19921;-81
2023/09/08 02:42:14;;;;;;;;;;;;;;;18.43;nan;100485.81;5009440;28;20275;-81
2023/09/08 02:44:39;;;;;;;;;;;;;;;18.38;nan;100493.66;5013413;28;20708;-82
2023/09/08 02:47:06;;;;;;;;;;;;;;;18.32;nan;100502.50;5013695;28;19920;-82
2023/09/08 02:49:31;;;;;;;;;;;;;;;18.23;nan;100507.19;5011159;28;20004;-82
2023/09/08 02:51:56;;;;;;;;;;;;;;;;;;5000782;28;20402;-81
2023/09/08 02:54:22;;;;;;;;;;;;;;;18.02;nan;100500.97;5000763;28;19918;-82
2023/09/08 02:56:47;;;;;;;;;;;;;;;17.96;nan;100495.59;4999964;28;20260;-82
2023/09/08 02:59:12;;;;;;;;;;;;;;;17.89;nan;100494.75;5005160;28;20063;-81
2023/09/08 03:01:37;;;;;;;;;;;;;;;17.78;nan;100488.09;5008056;28;19917;-82
2023/09/08 03:04:02;;;;;;;;;;;;;;;17.67;nan;100492.19;5014994;28;19961;-81
2023/09/08 03:06:27;;;;;;;;;;;;;;;17.56;nan;100495.41;5006316;28;19920;-83
2023/09/08 03:08:53;;;;;;;;;;;;;;;17.42;nan;100499.84;5002803;28;19918;-83
2023/09/08 03:11:18;;;;;;;;;;;;;;;17.27;nan;100497.31;5019807;28;20306;-83
2023/09/08 03:13:43;;;;;;;;;;;;;;;17.11;nan;100490.44;5013793;28;19928;-82
2023/09/08 03:16:08;;;;;;;;;;;;;;;16.97;nan;100497.53;5012970;28;19932;-81
2023/09/08 03:18:36;;;;;;;;;;;;;;;16.83;nan;100494.94;5012495;28;19929;-83
2023/09/08 03:21:08;;;;;;;;;;;;;;;16.68;nan;100493.13;5008262;28;19914;-83
2023/09/08 03:23:33;;;;;;;;;;;;;;;16.58;nan;100481.16;5011229;28;20362;-82
2023/09/08 03:25:58;;;;;;;;;;;;;;;;;;5001081;28;19913;-82
2023/09/08 03:28:24;;;;;;;;;;;;;;;16.42;nan;100479.56;5000616;28;19927;-82
2023/09/08 03:30:49;;;;;;;;;;;;;;;16.35;nan;100477.69;5002347;28;20355;-82
2023/09/08 03:33:14;;;;;;;;;;;;;;;16.25;nan;100493.16;5011835;28;20000;-82
2023/09/08 03:35:39;;;;;;;;;;;;;;;16.15;nan;100487.31;5017954;28;19924;-82
2023/09/08 03:38:04;;;;;;;;;;;;;;;16.07;nan;100484.78;5006334;28;19918;-82
2023/09/08 03:40:29;;;;;;;;;;;;;;;15.99;nan;100482.22;5013700;28;19917;-83
2023/09/08 03:42:55;;;;;;;;;;;;;;;15.92;nan;100476.78;5015026;28;19994;-81
2023/09/08 03:45:20;;;;;;;;;;;;;;;;;;5027610;28;19913;-81
2023/09/08 03:47:45;;;;;;;;;;;;;;;15.77;nan;100484.00;5023848;28;19924;-82
2023/09/08 03:50:10;;;;;;;;;;;;;;;15.70;nan;100479.41;5011535;28;19918;-83
2023/09/08 03:52:35;;;;;;;;;;;;;;;15.63;nan;100477.66;5001408;28;19913;-83
2023/09/08 03:55:01;;;;;;;;;;;;;;;15.58;nan;100483.53;4998649;28;19917;-83
2023/09/08 03:57:26;;;;;;;;;;;;;;;;;;5007724;28;19921;-83
2023/09/08 03:59:51;;;;;;;;;;;;;;;15.45;nan;100481.53;5016501;28;19973;-82
2023/09/08 04:02:16;;;;;;;;;;;;;;;15.38;nan;100482.47;4999662;28;20080;-82
2023/09/08 04:04:41;;;;;;;;;;;;;;;;;;5008078;28;19917;-82
2023/09/08 04:07:06;;;;;;;;;;;;;;;15.30;nan;100472.72;4995660;28;19913;-83
2023/09/08 04:09:31;;;;;;;;;;;;;;;15.28;nan;100426.81;4995940;28;19921;-82
2023/09/08 04:11:57;;;;;;;;;;;;;;;15.23;nan;100472.63;5019180;28;20021;-82
2023/09/08 04:14:26;;;;;;;;;;;;;;;15.20;nan;100477.50;5010227;28;19980;-81
2023/09/08 04:16:52;;;;;;;;;;;;;;;15.20;nan;100482.81;4997813;28;19968;-82
2023/09/08 04:19:17;;;;;;;;;;;;;;;15.17;nan;100468.03;4989320;28;20402;-83
2023/09/08 04:21:42;;;;;;;;;;;;;;;;;;5012460;28;20327;-82
2023/09/08 04:24:10;;;;;;;;;;;;;;;15.23;nan;100482.44;4995127;28;19920;-83
2023/09/08 04:26:35;;;;;;;;;;;;;;;15.24;nan;100474.28;4997653;28;20015;-83
2023/09/08 04:29:00;;;;;;;;;;;;;;;15.26;nan;100487.44;5016307;28;19957;-82
2023/09/08 04:31:25;;;;;;;;;;;;;;;15.26;nan;100471.44;4979197;28;19947;-83
2023/09/08 04:33:50;;;;;;;;;;;;;;;15.25;nan;100491.09;4996542;28;20390;-82
2023/09/08 04:36:16;;;;;;;;;;;;;;;15.25;nan;100488.41;5008850;28;19921;-82
2023/09/08 04:38:41;;;;;;;;;;;;;;;15.25;nan;100486.59;5010600;28;20363;-82
2023/09/08 04:41:06;;;;;;;;;;;;;;;15.23;nan;100487.78;4985268;28;19914;-82
2023/09/08 04:43:31;;;;;;;;;;;;;;;15.23;nan;100488.63;4994928;28;20008;-82
2023/09/08 04:45:57;;;;;;;;;;;;;;;15.25;nan;100491.94;5006599;28;20016;-82
2023/09/08 04:48:22;;;;;;;;;;;;;;;15.25;nan;100485.75;4986726;28;20354;-82
2023/09/08 04:50:48;;;;;;;;;;;;;;;15.24;nan;100498.25;5013326;28;19913;-83
2023/09/08 04:53:13;;;;;;;;;;;;;;;15.19;nan;100487.31;5017743;28;19949;-83
2023/09/08 04:55:38;;;;;;;;;;;;;;;15.15;nan;100487.88;5012577;28;19996;-83
2023/09/08 04:58:03;;;;;;;;;;;;;;;;;;5016079;28;20310;-82
2023/09/08 05:00:28;;;;;;;;;;;;;;;15.12;nan;100490.91;5018872;28;20008;-83
2023/09/08 05:02:53;;;;;;;;;;;;;;;15.12;nan;100502.38;5011734;28;19921;-82
2023/09/08 05:05:18;;;;;;;;;;;;;;;15.15;nan;100495.88;5008678;28;19917;-81
2023/09/08 05:07:45;;;;;;;;;;;;;;;15.17;nan;100505.31;5008424;28;19952;-83
2023/09/08 05:10:10;;;;;;;;;;;;;;;15.18;nan;100420.91;5019401;28;19913;-83
2023/09/08 05:12:35;;;;;;;;;;;;;;;15.19;nan;100486.50;5012709;28;19917;-82
2023/09/08 05:15:06;;;;;;;;;;;;;;;15.18;nan;100496.34;5018567;28;19917;-81
2023/09/08 05:17:32;;;;;;;;;;;;;;;15.16;nan;100502.81;4986502;28;19917;-82
2023/09/08 05:19:57;;;;;;;;;;;;;;;15.16;nan;100513.47;4998624;28;19937;-83
2023/09/08 05:22:22;;;;;;;;;;;;;;;15.15;nan;100502.00;5016741;28;19920;-82
2023/09/08 05:24:47;;;;;;;;;;;;;;;15.18;nan;100500.81;5019585;28;20310;-81
2023/09/08 05:27:12;;;;;;;;;;;;;;;15.20;nan;100504.13;5018726;28;19913;-84
2023/09/08 05:29:37;;;;;;;;;;;;;;;15.21;nan;100501.28;5008319;28;20012;-83
2023/09/08 05:32:03;;;;;;;;;;;;;;;15.22;nan;100502.13;5003932;28;19914;-84
2023/09/08 05:34:28;;;;;;;;;;;;;;;15.24;nan;100497.44;5017930;28;19917;-82
2023/09/08 05:36:53;;;;;;;;;;;;;;;15.29;nan;100490.53;5025789;28;19936;-81
2023/09/08 05:39:19;;;;;;;;;;;;;;;15.36;nan;100508.47;5009241;28;19913;-81
2023/09/08 05:41:44;;;;;;;;;;;;;;;15.44;nan;100511.03;5015276;28;20008;-82
2023/09/08 05:44:09;;;;;;;;;;;;;;;15.49;nan;100520.13;5013719;28;19951;-81
2023/09/08 05:46:35;;;;;;;;;;;;;;;15.62;nan;100518.66;5010700;28;19917;-82
2023/09/08 05:49:00;;;;;;;;;;;;;;;15.78;nan;100534.50;5011649;28;19925;-81
2023/09/08 05:51:25;;;;;;;;;;;;;;;;;;5019134;28;19917;-81
2023/09/08 05:53:50;;;;;;;;;;;;;;;16.56;nan;100538.25;5025500;28;20390;-83
2023/09/08 05:56:15;;;;;;;;;;;;;;;17.11;nan;100554.56;5017772;28;19921;-83
2023/09/08 05:58:40;;;;;;;;;;;;;;;17.68;nan;100557.16;4999508;28;20339;-83
2023/09/08 06:01:06;;;;;;;;;;;;;;;18.23;nan;100568.75;4993101;28;19917;-82
2023/09/08 06:03:32;;;;;;;;;;;;;;;18.76;nan;100581.44;5000115;28;19917;-83
2023/09/08 06:05:57;;;;;;;;;;;;;;;19.18;nan;100585.59;4997388;28;19913;-82
2023/09/08 06:08:22;;;;;;;;;;;;;;;19.61;nan;100573.59;5008509;28;20397;-82
2023/09/08 06:10:48;;;;;;;;;;;;;;;20.01;nan;100584.25;5008848;28;19917;-81
2023/09/08 06:13:13;;;;;;;;;;;;;;;20.43;nan;100577.44;5006513;28;19921;-82
2023/09/08 06:15:38;;;;;;;;;;;;;;;20.83;nan;100587.94;5020812;28;20009;-81
2023/09/08 06:18:03;;;;;;;;;;;;;;;21.07;nan;100599.78;4999050;28;19918;-81
2023/09/08 06:20:29;;;;;;;;;;;;;;;21.46;nan;100600.47;5010303;28;20354;-81
2023/09/08 06:22:54;;;;;;;;;;;;;;;21.77;nan;100598.72;5007972;28;19914;-80
2023/09/08 06:25:19;;;;;;;;;;;;;;;22.16;nan;100602.81;5009524;28;19913;-83
2023/09/08 06:27:44;;;;;;;;;;;;;;;22.47;nan;100617.16;5021544;28;19918;-81
2023/09/08 06:30:10;;;;;;;;;;;;;;;22.55;nan;100616.84;5019850;28;19913;-83
2023/09/08 06:32:35;;;;;;;;;;;;;;;22.71;nan;100609.97;5009603;28;20333;-81
2023/09/08 06:35:00;;;;;;;;;;;;;;;22.98;nan;100615.81;5014063;28;19953;-81
2023/09/08 06:37:25;;;;;;;;;;;;;;;23.13;nan;100606.47;5012115;28;19932;-81
2023/09/08 06:39:50;;;;;;;;;;;;;;;23.36;nan;100617.28;4987079;28;19964;-81
2023/09/08 06:42:16;;;;;;;;;;;;;;;;;;4994002;28;19979;-82
2023/09/08 06:44:42;;;;;;;;;;;;;;;23.48;nan;100615.41;5014722;28;20338;-81
2023/09/08 06:47:07;;;;;;;;;;;;;;;23.69;nan;100621.22;5011700;28;19932;-81
2023/09/08 06:49:32;;;;;;;;;;;;;;;23.99;nan;100621.09;5007451;28;20029;-78
2023/09/08 06:51:57;;;;;;;;;;;;;;;24.24;nan;100612.72;4991134;28;19922;-78
2023/09/08 06:54:23;;;;;;;;;;;;;;;24.41;nan;100611.91;5011956;28;19996;-78
2023/09/08 06:56:48;;;;;;;;;;;;;;;24.73;nan;100620.41;5012936;28;19917;-78
2023/09/08 06:59:13;;;;;;;;;;;;;;;24.95;nan;100607.78;5013998;28;19929;-78
2023/09/08 07:01:38;;;;;;;;;;;;;;;25.17;nan;100616.03;5009122;28;19963;-79
2023/09/08 07:04:04;;;;;;;;;;;;;;;25.53;nan;100619.28;5010363;28;19928;-81
2023/09/08 07:06:29;;;;;;;;;;;;;;;25.73;nan;100623.34;5015225;28;19917;-80
2023/09/08 07:08:54;;;;;;;;;;;;;;;25.97;nan;100624.78;4999176;28;19921;-79
2023/09/08 07:11:19;;;;;;;;;;;;;;;25.94;nan;100624.47;5015580;28;19923;-79
2023/09/08 07:13:44;;;;;;;;;;;;;;;26.30;nan;100628.41;5006498;28;21049;-78
2023/09/08 07:16:10;;;;;;;;;;;;;;;26.46;nan;100629.41;5010764;28;19914;-82
2023/09/08 07:18:37;;;;;;;;;;;;;;;26.71;nan;100628.88;5012134;28;19929;-80
2023/09/08 07:21:02;;;;;;;;;;;;;;;26.95;nan;100634.78;5005076;28;19941;-79
2023/09/08 07:23:27;;;;;;;;;;;;;;;27.33;nan;100631.03;5014041;28;20348;-80
2023/09/08 07:25:53;;;;;;;;;;;;;;;27.41;nan;100632.47;5013979;28;19925;-79
2023/09/08 07:28:18;;;;;;;;;;;;;;;27.56;nan;100634.47;5012565;28;19917;-79
2023/09/08 07:30:43;;;;;;;;;;;;;;;28.14;nan;100623.63;5013013;28;19925;-81
2023/09/08 07:33:09;;;;;;;;;;;;;;;28.76;nan;100630.06;5010948;28;19922;-79
2023/09/08 07:35:38;;;;;;;;;;;;;;;29.25;nan;100621.38;5011609;28;19922;-79
2023/09/08 07:38:03;;;;;;;;;;;;;;;29.92;nan;100640.31;5013662;28;19940;-78
2023/09/08 07:40:28;;;;;;;;;;;;;;;30.33;nan;100634.72;4989290;28;20379;-82
2023/09/08 07:42:53;;;;;;;;;;;;;;;30.78;nan;100641.78;5009359;28;20128;-81
2023/09/08 07:45:18;;;;;;;;;;;;;;;31.15;nan;100645.06;4990396;28;19921;-80
2023/09/08 07:47:45;;;;;;;;;;;;;;;31.41;nan;100648.41;5009737;28;19921;-80
2023/09/08 07:50:21;;;;;;;;;;;;;;;31.60;nan;100654.75;5009142;28;19921;-80
2023/09/08 07:52:47;;;;;;;;;;;;;;;31.77;nan;100651.56;5010864;28;20434;-80
2023/09/08 07:55:12;;;;;;;;;;;;;;;31.80;nan;100645.53;5010635;28;19959;-79
2023/09/08 07:57:37;;;;;;;;;;;;;;;31.90;nan;100659.09;5010677;28;19922;-79
2023/09/08 08:00:03;;;;;;;;;;;;;;;32.20;nan;100653.53;5011585;28;19983;-80
2023/09/08 08:02:30;;;;;;;;;;;;;;;32.40;nan;100657.94;5019577;28;19925;-79
2023/09/08 08:04:55;;;;;;;;;;;;;;;32.48;nan;100660.00;5011469;28;19913;-79
2023/09/08 08:07:20;;;;;;;;;;;;;;;32.70;nan;100652.03;5016366;28;19921;-80
2023/09/08 08:09:45;;;;;;;;;;;;;;;32.69;nan;100650.41;5011813;28;19921;-80
2023/09/08 08:12:10;;;;;;;;;;;;;;;32.93;nan;100655.78;5016389;28;19917;-78
2023/09/08 08:14:36;;;;;;;;;;;;;;;33.04;nan;100651.00;5009526;28;19917;-79
2023/09/08 08:17:01;;;;;;;;;;;;;;;33.25;nan;100654.19;4995049;28;19949;-78
2023/09/08 08:19:27;;;;;;;;;;;;;;;33.51;nan;100650.97;5014470;28;19924;-79
2023/09/08 08:21:52;;;;;;;;;;;;;;;33.57;nan;100658.84;5011701;28;19924;-79
2023/09/08 08:24:17;;;;;;;;;;;;;;;33.39;nan;100651.47;5012046;28;20055;-78
2023/09/08 08:26:43;;;;;;;;;;;;;;;33.48;nan;100655.13;5009910;28;20398;-78
2023/09/08 08:29:08;;;;;;;;;;;;;;;33.73;nan;100664.84;5005721;28;19925;-79
2023/09/08 08:31:33;;;;;;;;;;;;;;;33.99;nan;100659.66;5004658;28;19928;-78
2023/09/08 08:33:58;;;;;;;;;;;;;;;34.03;nan;100659.84;5008266;28;19924;-79
2023/09/08 08:36:23;;;;;;;;;;;;;;;34.38;nan;100661.06;5009387;28;19969;-78
2023/09/08 08:38:48;;;;;;;;;;;;;;;34.74;nan;100659.44;5012110;28;19917;-78
2023/09/08 08:41:13;;;;;;;;;;;;;;;34.77;nan;100656.88;5011933;28;20326;-79
2023/09/08 08:43:39;;;;;;;;;;;;;;;34.89;nan;100665.38;4988347;28;20437;-78
2023/09/08 08:46:05;;;;;;;;;;;;;;;35.39;nan;100658.13;5008183;28;19917;-79
2023/09/08 08:48:31;;;;;;;;;;;;;;;35.62;nan;100658.91;5007026;28;20016;-79
2023/09/08 08:50:57;;;;;;;;;;;;;;;35.96;nan;100647.19;5006975;28;20260;-79
2023/09/08 08:53:23;;;;;;;;;;;;;;;36.20;nan;100656.97;5010897;28;19924;-79
2023/09/08 08:55:52;;;;;;;;;;;;;;;36.60;nan;100660.44;5010685;28;20309;-79
2023/09/08 08:58:20;;;;;;;;;;;;;;;36.96;nan;100651.81;5005822;28;20333;-78
2023/09/08 09:00:46;;;;;;;;;;;;;;;37.37;nan;100655.16;4991419;28;20019;-78
2023/09/08 09:03:11;;;;;;;;;;;;;;;37.47;nan;100649.28;5006138;28;20402;-79
2023/09/08 09:05:37;;;;;;;;;;;;;;;37.59;nan;100652.19;4999738;28;19982;-79
2023/09/08 09:08:03;;;;;;;;;;;;;;;37.88;nan;100655.25;5009490;28;19917;-78
2023/09/08 09:10:30;;;;;;;;;;;;;;;37.96;nan;100648.91;4987772;28;19917;-78
2023/09/08 09:12:55;;;;;;;;;;;;;;;38.32;nan;100655.84;5008889;28;19973;-83
2023/09/08 09:15:32;;;;;;;0.00;0.00;;;;;;;38.82;nan;100652.97;5005614;28;21453;-82
2023/09/08 09:18:05;;;;;;;0.00;0.00;;;;;;;39.08;nan;100649.97;4999432;28;20034;-81
2023/09/08 09:20:31;;;;;;;0.00;0.00;;;;;;;39.32;nan;100692.69;5002727;28;20124;-82
2023/09/08 09:22:56;;;;;;;0.00;0.00;;;;;;;39.23;nan;100694.72;5004120;28;20465;-81
2023/09/08 09:25:23;;;;;;;0.00;0.00;;;;;;;;;;5001388;28;20038;-83
2023/09/08 09:27:52;;;;;;;0.00;0.00;;;;;;;;;;5002486;28;20443;-83
2023/09/08 09:30:18;;;;;;;0.00;0.00;;;;;;;39.78;nan;100656.66;4985220;28;20422;-82
2023/09/08 09:32:43;;;;;;;;;;;;;;;39.82;nan;100654.84;5001465;28;20054;-82
2023/09/08 09:35:09;;;;;;;0.00;0.00;;;;;;;;;;5000600;28;19918;-82
2023/09/08 09:37:35;;;;;;;0.00;0.00;;;;;;;39.95;nan;100652.84;4978542;28;20312;-83
2023/09/08 09:40:01;;;;;;;0.00;0.00;;;;;;;40.24;nan;100649.00;5000746;28;20042;-83
2023/09/08 09:42:27;;;;;;;0.00;0.00;;;;;;;40.82;nan;100657.84;5004445;28;20041;-83
2023/09/08 09:44:53;;;;;;;0.00;0.00;;;;;;;41.40;nan;100671.28;5011450;28;20255;-83
2023/09/08 09:47:19;;;;;;;;;;;;;;;41.57;nan;100657.09;5009063;28;20124;-83
2023/09/08 09:49:45;;;;;;;;;;;;;;;41.38;nan;100652.22;4993032;28;19928;-83
2023/09/08 09:52:20;;;;;;;0.00;0.00;;;;;;;41.53;nan;100647.84;5010261;28;19923;-83
2023/09/08 09:54:45;;;;;;;0.00;0.00;;;;;;;40.99;nan;100647.59;5013221;28;20034;-83
2023/09/08 09:57:14;;;;;;;0.00;0.00;;;;;;;41.42;nan;100643.97;4992864;28;20177;-84
2023/09/08 09:59:43;;;;;;;0.00;0.00;;;;;;;40.19;nan;100663.91;5011132;28;20369;-82
2023/09/08 10:02:12;;;;;;;0.00;0.00;;;;;;;39.48;nan;100662.41;5005070;28;20034;-83
2023/09/08 10:04:42;;;;;;;0.00;0.00;;;;;;;39.74;nan;100642.72;5007389;28;20051;-83
2023/09/08 10:07:08;;;;;;;0.00;0.00;;;;;;;40.31;nan;100646.47;5009294;28;20129;-84
2023/09/08 10:09:34;;;;;;;0.00;0.00;;;;;;;40.46;nan;100639.38;5000765;28;20468;-83
2023/09/08 10:12:04;;;;;;;0.00;0.00;;;;;;;40.22;nan;100679.03;4992596;28;20034;-84
2023/09/08 10:14:31;;;;;;;0.00;0.00;;;;;;;40.11;nan;100628.81;5011398;28;20125;-84
2023/09/08 10:16:59;;;;;;;0.00;0.00;;;;;;;40.74;nan;100634.66;5011898;28;20619;-83
2023/09/08 10:19:25;;;;;;;0.00;0.00;;;;;;;41.35;nan;100627.94;4989750;28;20042;-83
2023/09/08 10:21:54;;;;;;;0.00;0.00;;;;;;;41.50;nan;100620.78;5007212;28;20030;-83
2023/09/08 10:24:25;;;;;;;0.00;0.00;;;;;;;41.18;nan;100631.88;5005582;28;20044;-83
2023/09/08 10:27:06;;;;;;;0.00;0.00;;;;;;;41.70;nan;100618.09;5010592;28;20026;-83
2023/09/08 10:29:32;;;;;;;0.00;0.00;;;;;;;42.08;nan;100622.94;4986005;28;20081;-83
2023/09/08 10:31:58;;;;;;;0.00;0.00;;;;;;;42.14;nan;100615.91;4990571;28;20034;-83
2023/09/08 10:34:25;;;;;;;0.00;0.00;;;;;;;42.60;nan;100620.88;5007012;28;20104;-83
2023/09/08 10:36:51;;;;;;;0.00;0.00;;;;;;;42.55;nan;100646.16;5005966;28;20037;-83
2023/09/08 10:39:43;;;;;;;0.00;0.00;;;;;;;41.00;nan;100630.59;4985896;28;20057;-82
2023/09/08 10:42:17;;;;;;;0.00;0.00;;;;;;;40.75;nan;100632.69;5005622;28;20076;-83
2023/09/08 10:44:51;;;;;;;0.00;0.00;;;;;;;40.57;nan;100629.38;5010612;28;20041;-82
2023/09/08 10:47:23;;;;;;;0.00;0.00;;;;;;;40.84;nan;100665.81;5004040;28;20037;-83
2023/09/08 10:49:53;;;;;;;0.00;0.00;;;;;;;40.90;nan;100644.97;5002687;28;20027;-83
2023/09/08 10:52:21;;;;;;;0.00;0.00;;;;;;;41.15;nan;100620.72;5004745;28;20038;-83
2023/09/08 10:54:52;;;;;;;0.00;0.00;;;;;;;41.25;nan;100619.38;5010219;28;20182;-83
2023/09/08 10:57:20;;;;;;;0.00;0.00;;;;;;;41.76;nan;100616.63;5007649;28;20169;-84
2023/09/08 11:00:01;;;;;;;0.00;0.00;;;;;;;41.82;nan;100619.97;5008965;28;20431;-82
2023/09/08 11:02:37;;;;;;;;;;;;;;;42.59;nan;100616.47;4989487;28;20035;-83
2023/09/08 11:05:04;;;;;;;0.00;0.00;;;;;;;42.92;nan;100632.59;5002184;28;19953;-83
2023/09/08 11:07:33;;;;;;;0.00;0.00;;;;;;;43.09;nan;100634.09;5007711;28;20034;-83
2023/09/08 11:09:59;;;;;;;0.00;0.00;;;;;;;42.51;nan;100609.97;4995235;28;20045;-84
2023/09/08 11:12:28;;;;;;;0.00;0.00;;;;;;;41.97;nan;100611.59;5005194;28;20677;-83
2023/09/08 11:14:54;;;;;;;0.00;0.00;;;;;;;42.28;nan;100615.41;5008021;28;20703;-84
2023/09/08 11:17:20;;;;;;;0.00;0.00;;;;;;;42.73;nan;100663.22;5009829;28;20592;-82
2023/09/08 11:19:47;;;;;;;0.00;0.00;;;;;;;42.65;nan;100598.31;5005545;28;20038;-82
2023/09/08 11:22:13;;;;;;;0.00;0.00;;;;;;;42.58;nan;100623.19;4998536;28;20061;-85
2023/09/08 11:24:39;;;;;;;0.00;0.00;;;;;;;42.35;nan;100593.31;5008308;28;20073;-82
2023/09/08 11:27:04;;;;;;;0.00;0.00;;;;;;;41.79;nan;100599.28;5005972;28;20457;-83
2023/09/08 11:29:30;;;;;;;0.00;0.00;;;;;;;;;;4988341;28;20407;-84
2023/09/08 11:31:55;;;;;;;0.00;0.00;;;;;;;40.43;nan;100601.28;5009983;28;20042;-82
2023/09/08 11:34:21;;;;;;;0.00;0.00;;;;;;;41.11;nan;100611.47;5000099;28;20285;-85
2023/09/08 11:36:46;;;;;;;0.00;0.00;;;;;;;41.05;nan;100610.91;4991091;28;20038;-85
2023/09/08 11:39:12;;;;;;;0.00;0.00;;;;;;;41.36;nan;100604.59;5016143;28;20053;-82
2023/09/08 11:41:38;;;;;;;0.00;0.00;;;;;;;41.68;nan;100587.09;5009032;28;20324;-85
2023/09/08 11:44:04;;;;;;;0.00;0.00;;;;;;;42.20;nan;100602.56;5010732;28;20654;-82
2023/09/08 11:46:30;;;;;;;0.00;0.00;;;;;;;42.41;nan;100577.22;4986093;28;20038;-82
2023/09/08 11:48:56;;;;;;;1.08;1.08;;;;;;;41.94;nan;100583.72;4978675;28;20046;-82
2023/09/08 11:51:26;;;;;;;0.00;0.00;;;;;;;41.08;nan;100576.91;5006974;28;20037;-82
2023/09/08 11:53:51;;;;;;;0.00;0.00;;;;;;;39.88;nan;100614.66;5006416;28;20053;-83
2023/09/08 11:56:17;;;;;;;0.00;0.00;;;;;;;38.94;nan;100605.25;5000006;28;20062;-85
2023/09/08 11:58:43;;;;;;;0.00;0.00;;;;;;;38.51;nan;100580.78;5005342;28;20475;-84
2023/09/08 12:01:09;;;;;;;0.00;0.00;;;;;;;37.79;nan;100570.56;4999292;28;20045;-82
2023/09/08 12:03:35;;;;;;;0.00;0.00;;;;;;;36.76;nan;100570.63;4987688;28;20089;-85
2023/09/08 12:06:02;;;;;;;0.00;0.00;;;;;;;36.38;nan;100566.94;5008260;28;20034;-84
2023/09/08 12:08:27;;;;;;;0.00;0.00;;;;;;;35.78;nan;100579.47;5003369;28;20100;-83
2023/09/08 12:10:54;;;;;;;0.00;0.00;;;;;;;35.76;nan;100562.50;5001245;28;20545;-83
2023/09/08 12:13:23;;;;;;;0.00;0.00;;;;;;;34.96;nan;100560.50;4997907;28;20093;-82
2023/09/08 12:15:49;;;;;;;0.00;0.00;;;;;;;34.43;nan;100564.84;5001732;28;20030;-82
2023/09/08 12:18:15;;;;;;;0.00;0.00;;;;;;;34.42;nan;100551.41;5013586;28;20128;-83
2023/09/08 12:20:41;;;;;;;0.00;0.00;;;;;;;33.87;nan;100568.81;5023014;28;20034;-83
2023/09/08 12:23:22;;;;;;;0.00;0.00;;;;;;;33.79;nan;100588.75;5010039;28;20034;-83
2023/09/08 12:25:52;;;;;;;0.00;0.00;;;;;;;33.70;nan;100514.59;4995707;28;20051;-83
2023/09/08 12:28:19;;;;;;;0.00;0.00;;;;;;;33.69;nan;100528.66;5004404;28;20037;-83
2023/09/08 12:30:44;;;;;;;0.00;0.00;;;;;;;33.58;nan;100544.50;5008085;28;20044;-83
2023/09/08 12:33:14;;;;;;;0.00;0.00;;;;;;;33.49;nan;100573.69;4999241;28;20035;-83
2023/09/08 12:35:42;;;;;;;0.00;0.00;;;;;;;32.67;nan;100536.81;5007619;28;20555;-83
2023/09/08 12:38:08;;;;;;;0.00;0.00;;;;;;;32.22;nan;100515.34;4997480;28;20034;-83
2023/09/08 12:40:37;;;;;;;0.00;0.00;;;;;;;32.45;nan;100527.28;4993769;28;20042;-82